Time;durP1;ratioP1;P1;durP2;ratioP2;P2;SDS_P1;SDS_P2;PMS_P1;PMS_P2;Temp;Humidity;BMP_temperature;BMP_pressure;BME280_temperature;BME280_humidity;BME280_pressure;Samples;Min_cycle;Max_cycle;Signal;HPM_P1;HPM_P2
2023/07/04 00:01:24;;;;;;;14.98;4.25;;;;;;;26.88;31.54;98974.50;5075314;28;20097;-67
2023/07/04 00:03:55;;;;;;;8.27;3.90;;;;;;;26.76;31.76;98978.63;5059071;28;20506;-67
2023/07/04 00:06:23;;;;;;;12.25;4.35;;;;;;;26.79;31.41;98975.34;5042360;28;20035;-67
2023/07/04 00:08:50;;;;;;;12.00;3.78;;;;;;;26.68;31.23;98980.03;5058005;28;20059;-69
2023/07/04 00:11:19;;;;;;;12.48;3.72;;;;;;;26.60;31.54;98988.72;5058655;28;20051;-67
2023/07/04 00:13:46;;;;;;;16.83;4.13;;;;;;;26.52;31.53;98986.59;5058770;28;20097;-67
2023/07/04 00:16:14;;;;;;;11.27;4.22;;;;;;;26.54;31.57;98987.13;5075180;28;20422;-67
2023/07/04 00:18:40;;;;;;;7.50;3.75;;;;;;;26.50;31.71;98996.94;5058346;28;20101;-67
2023/07/04 00:21:13;;;;;;;8.98;3.75;;;;;;;26.74;31.89;98989.00;5041704;28;20486;-67
2023/07/04 00:23:45;;;;;;;14.15;3.55;;;;;;;26.81;31.31;98990.34;5091875;28;20058;-68
2023/07/04 00:26:12;;;;;;;;;;;;;;;27.14;31.00;98991.56;5076035;28;20055;-67
2023/07/04 00:28:38;;;;;;;8.73;3.95;;;;;;;26.31;31.74;98996.72;5059344;28;20386;-67
2023/07/04 00:31:07;;;;;;;14.57;3.60;;;;;;;26.36;31.74;98991.25;5092432;28;20048;-68
2023/07/04 00:33:34;;;;;;;7.20;3.45;;;;;;;26.18;31.82;98997.28;5074781;28;20074;-68
2023/07/04 00:36:03;;;;;;;10.65;4.03;;;;;;;26.24;31.61;98987.19;5041545;28;20071;-67
2023/07/04 00:38:34;;;;;;;9.77;3.88;;;;;;;26.34;31.74;98987.97;5041702;28;20035;-67
2023/07/04 00:41:08;;;;;;;13.55;4.50;;;;;;;26.46;31.98;98996.66;5041936;28;20483;-67
2023/07/04 00:44:11;;;;;;;8.93;3.80;;;;;;;26.52;31.72;99002.13;5041505;28;20048;-67
2023/07/04 00:47:06;;;;;;;13.50;4.97;;;;;;;26.54;31.67;99008.91;5043744;28;20448;-67
2023/07/04 00:49:42;;;;;;;10.75;4.43;;;;;;;26.30;32.01;99005.97;5059702;28;20048;-67
2023/07/04 00:52:25;;;;;;;15.30;4.22;;;;;;;26.42;31.98;99008.41;5075630;28;20072;-68
2023/07/04 00:54:57;;;;;;;13.30;4.15;;;;;;;26.33;32.28;99007.31;5042447;28;20373;-67
2023/07/04 00:57:31;;;;;;;12.82;3.72;;;;;;;26.16;32.39;99010.34;5075303;28;20043;-67
2023/07/04 01:00:00;;;;;;;9.00;3.85;;;;;;;26.12;31.87;99016.63;5058595;28;20455;-67
2023/07/04 01:02:32;;;;;;;11.88;4.20;;;;;;;26.23;32.30;99016.31;5074889;28;20126;-67
2023/07/04 01:04:59;;;;;;;5.40;3.70;;;;;;;26.16;32.06;99026.69;5070420;28;20109;-68
2023/07/04 01:07:43;;;;;;;7.28;3.80;;;;;;;26.31;31.90;99040.28;5058057;28;20071;-69
2023/07/04 01:10:17;;;;;;;6.97;3.50;;;;;;;26.30;31.68;99030.47;5074490;28;20040;-68
2023/07/04 01:12:43;;;;;;;11.00;3.65;;;;;;;26.03;31.77;99027.22;5074269;28;20484;-68
2023/07/04 01:15:09;;;;;;;10.30;4.20;;;;;;;26.16;31.64;99029.41;5057510;28;20453;-67
2023/07/04 01:17:36;;;;;;;8.25;3.78;;;;;;;26.16;31.72;99032.13;5041012;28;20052;-67
2023/07/04 01:20:08;;;;;;;10.82;3.92;;;;;;;26.31;31.83;99042.16;5060009;28;20044;-67
2023/07/04 01:22:38;;;;;;;7.25;3.70;;;;;;;26.35;31.49;99037.81;5078743;28;20051;-67
2023/07/04 01:25:10;;;;;;;13.32;3.80;;;;;;;26.32;31.74;99046.53;5061722;28;20365;-67
2023/07/04 01:27:40;;;;;;;10.80;3.97;;;;;;;26.05;31.54;99033.22;5061530;28;20498;-67
2023/07/04 01:30:08;;;;;;;13.52;3.75;;;;;;;26.26;31.40;99039.47;5094986;28;20488;-67
2023/07/04 01:32:34;;;;;;;13.82;4.10;;;;;;;26.05;31.60;99046.00;5094940;28;20118;-67
2023/07/04 01:35:02;;;;;;;7.20;3.13;;;;;;;26.09;31.58;99047.09;5061232;28;20076;-68
2023/07/04 01:37:31;;;;;;;;;;;;;;;26.28;31.31;99049.00;5047146;28;20380;-67
2023/07/04 01:39:58;;;;;;;11.13;3.63;;;;;;;26.07;31.53;99057.44;5044963;28;19919;-67
2023/07/04 01:42:26;;;;;;;12.80;3.47;;;;;;;26.02;31.42;99060.16;5078371;28;20048;-68
2023/07/04 01:44:54;;;;;;;7.90;3.40;;;;;;;25.94;31.49;99058.75;5045396;28;20044;-67
2023/07/04 01:47:21;;;;;;;7.28;3.67;;;;;;;26.02;31.83;99076.47;5061139;28;20079;-67
2023/07/04 01:49:47;;;;;;;5.70;3.50;;;;;;;25.88;32.08;99068.00;5044733;28;20571;-67
2023/07/04 01:52:13;;;;;;;9.43;3.50;;;;;;;25.90;31.89;99070.44;5061312;28;20051;-67
2023/07/04 01:54:39;;;;;;;7.18;3.65;;;;;;;26.05;31.69;99081.38;5077748;28;20044;-67
2023/07/04 01:57:10;;;;;;;10.43;3.90;;;;;;;26.14;31.60;99087.91;5044340;28;20105;-68
2023/07/04 01:59:37;;;;;;;19.83;4.32;;;;;;;26.24;31.39;99082.47;5061854;28;20040;-68
2023/07/04 02:02:03;;;;;;;12.90;3.65;;;;;;;26.22;31.17;99088.19;5062325;28;20056;-67
2023/07/04 02:04:28;;;;;;;9.82;3.88;;;;;;;26.25;31.36;99084.09;5095584;28;20447;-67
2023/07/04 02:06:56;;;;;;;12.32;3.92;;;;;;;26.25;30.96;99090.38;5045379;28;20047;-67
2023/07/04 02:09:24;;;;;;;9.43;4.10;;;;;;;26.52;30.75;99090.91;5061226;28;20128;-67
2023/07/04 02:11:50;;;;;;;11.45;4.20;;;;;;;26.41;30.79;99094.75;5077975;28;20193;-67
2023/07/04 02:14:25;;;;;;;11.70;3.90;;;;;;;26.19;31.25;99099.63;5080381;28;20104;-68
2023/07/04 02:16:52;;;;;;;11.02;4.35;;;;;;;26.20;31.15;99105.91;5079793;28;20102;-67
2023/07/04 02:19:19;;;;;;;9.80;4.05;;;;;;;26.06;31.07;99102.09;5078243;28;20142;-67
2023/07/04 02:21:45;;;;;;;10.93;4.63;;;;;;;26.15;31.20;99097.72;5060965;28;20601;-68
2023/07/04 02:24:11;;;;;;;11.13;4.10;;;;;;;26.21;30.96;99094.75;5060738;28;20089;-68
2023/07/04 02:26:37;;;;;;;11.05;4.78;;;;;;;26.20;31.04;99105.91;5060664;28;20136;-67
2023/07/04 02:29:05;;;;;;;11.50;4.55;;;;;;;26.14;31.03;99101.53;5060790;28;20032;-67
2023/07/04 02:31:31;;;;;;;10.63;5.18;;;;;;;26.16;30.84;99102.91;5059906;28;20040;-67
2023/07/04 02:33:59;;;;;;;10.98;4.32;;;;;;;25.97;31.35;99109.13;5095000;28;20059;-67
2023/07/04 02:36:27;;;;;;;15.57;4.53;;;;;;;26.07;30.81;99109.97;5044050;28;20056;-67
2023/07/04 02:38:53;;;;;;;12.85;4.63;;;;;;;26.16;31.08;99108.34;5077492;28;20093;-67
2023/07/04 02:41:19;;;;;;;13.73;4.55;;;;;;;26.20;31.13;99120.31;5044291;28;20381;-67
2023/07/04 02:43:48;;;;;;;11.00;4.38;;;;;;;26.19;30.89;99121.41;5061766;28;20044;-68
2023/07/04 02:46:14;;;;;;;9.02;4.15;;;;;;;26.07;31.16;99129.03;5060604;28;20127;-67
2023/07/04 02:48:44;;;;;;;12.73;4.78;;;;;;;26.07;31.28;99112.69;5060148;28;20070;-67
2023/07/04 02:51:10;;;;;;;18.65;4.45;;;;;;;26.10;31.31;99127.66;5076315;28;20063;-68
2023/07/04 02:53:36;;;;;;;15.20;4.57;;;;;;;26.11;30.88;99132.84;5042355;28;20048;-68
2023/07/04 02:56:02;;;;;;;13.95;5.03;;;;;;;26.09;31.12;99135.00;5025972;28;20043;-67
2023/07/04 02:58:30;;;;;;;11.95;4.40;;;;;;;26.15;31.05;99133.13;5059395;28;20048;-67
2023/07/04 03:00:58;;;;;;;20.17;4.25;;;;;;;26.21;31.39;99129.31;5059087;28;20090;-67
2023/07/04 03:03:27;;;;;;;14.48;4.90;;;;;;;25.99;31.56;99131.44;5059383;28;20040;-67
2023/07/04 03:05:54;;;;;;;18.80;5.00;;;;;;;26.00;31.51;99133.91;5026348;28;20052;-67
2023/07/04 03:08:20;;;;;;;11.68;4.70;;;;;;;25.84;31.93;99139.56;5042345;28;20055;-67
2023/07/04 03:10:48;;;;;;;17.50;4.90;;;;;;;25.90;32.68;99141.19;5042051;28;20093;-67
2023/07/04 03:13:17;;;;;;;12.75;5.10;;;;;;;25.95;31.96;99146.66;5042561;28;20086;-67
2023/07/04 03:15:46;;;;;;;19.45;5.25;;;;;;;26.23;32.52;99147.00;5035179;28;20055;-67
2023/07/04 03:18:12;;;;;;;13.18;5.20;;;;;;;26.02;32.45;99137.19;5018717;28;20064;-67
2023/07/04 03:20:40;;;;;;;9.75;5.03;;;;;;;26.19;32.49;99145.91;5005925;28;20055;-67
2023/07/04 03:23:06;;;;;;;14.77;5.53;;;;;;;26.03;32.99;99136.09;5041568;28;20108;-68
2023/07/04 03:25:32;;;;;;;20.70;6.18;;;;;;;26.21;32.61;99146.47;5025858;28;20126;-67
2023/07/04 03:27:59;;;;;;;14.02;5.80;;;;;;;26.17;33.05;99145.34;5023422;28;20048;-67
2023/07/04 03:30:29;;;;;;;15.45;5.88;;;;;;;26.15;33.09;99139.38;5055378;28;20060;-68
2023/07/04 03:33:02;;;;;;;21.25;5.65;;;;;;;26.22;33.37;99142.66;5038335;28;20079;-67
2023/07/04 03:35:29;;;;;;;12.20;5.22;;;;;;;26.23;32.69;99141.56;5039087;28;20442;-68
2023/07/04 03:37:56;;;;;;;19.17;5.43;;;;;;;26.34;32.96;99151.38;5022080;28;20050;-68
2023/07/04 03:40:22;;;;;;;24.67;5.47;;;;;;;26.31;33.26;99149.19;5021748;28;20098;-67
2023/07/04 03:42:48;;;;;;;18.77;5.50;;;;;;;26.36;33.30;99151.09;5054593;28;20048;-67
2023/07/04 03:45:17;;;;;;;17.52;5.70;;;;;;;26.43;33.35;99157.91;5010755;28;20049;-67
2023/07/04 03:47:45;;;;;;;11.98;5.28;;;;;;;26.42;33.10;99145.38;4998417;28;20049;-68
2023/07/04 03:50:13;;;;;;;9.85;5.57;;;;;;;26.55;33.38;99156.81;4998385;28;20064;-67
2023/07/04 03:52:39;;;;;;;18.45;5.90;;;;;;;26.70;33.18;99165.00;5014595;28;20467;-67
2023/07/04 03:55:07;;;;;;;18.48;5.90;;;;;;;26.74;33.34;99163.38;4998101;28;20068;-68
2023/07/04 03:57:34;;;;;;;18.50;5.55;;;;;;;26.72;33.51;99165.56;5014892;28;20056;-67
2023/07/04 04:00:00;;;;;;;20.02;6.15;;;;;;;26.83;33.67;99173.44;4982142;28;20072;-68
2023/07/04 04:02:30;;;;;;;24.10;5.03;;;;;;;26.99;33.24;99176.97;5016871;28;20057;-67
2023/07/04 04:04:56;;;;;;;21.73;5.10;;;;;;;27.01;33.94;99175.63;5017842;28;20159;-68
2023/07/04 04:07:23;;;;;;;10.68;5.00;;;;;;;27.06;33.69;99178.31;5001612;28;20044;-67
2023/07/04 04:09:50;;;;;;;13.60;5.65;;;;;;;27.38;33.76;99178.84;5020587;28;20512;-67
2023/07/04 04:12:15;;;;;;;16.55;5.70;;;;;;;26.91;34.32;99180.28;5018913;28;20041;-67
2023/07/04 04:14:43;;;;;;;15.75;5.32;;;;;;;27.10;34.32;99170.41;5017214;28;20053;-67
2023/07/04 04:17:11;;;;;;;9.93;4.97;;;;;;;27.46;34.13;99182.91;5070170;28;20047;-68
2023/07/04 04:19:36;;;;;;;17.55;5.15;;;;;;;27.52;33.74;99181.78;5044252;28;20070;-67
2023/07/04 04:22:04;;;;;;;14.05;4.82;;;;;;;27.76;33.29;99177.28;5060831;28;20043;-67
2023/07/04 04:24:30;;;;;;;16.80;4.45;;;;;;;27.54;33.38;99188.56;5094053;28;20048;-68
2023/07/04 04:27:00;;;;;;;16.40;5.22;;;;;;;27.77;33.02;99190.66;5043915;28;20202;-68
2023/07/04 04:29:28;;;;;;;12.50;4.63;;;;;;;27.84;32.82;99185.72;5077837;28;20047;-67
2023/07/04 04:31:55;;;;;;;14.38;5.13;;;;;;;28.05;32.86;99180.19;5061087;28;20051;-67
2023/07/04 04:34:22;;;;;;;11.57;5.05;;;;;;;27.97;32.55;99174.22;5036712;28;20596;-67
2023/07/04 04:36:48;;;;;;;14.13;5.68;;;;;;;28.29;32.38;99192.03;5004320;28;20088;-67
2023/07/04 04:39:14;;;;;;;13.30;4.75;;;;;;;28.22;31.93;99195.09;5020582;28;20049;-67
2023/07/04 04:41:42;;;;;;;18.15;6.38;;;;;;;28.33;32.44;99190.38;5021161;28;20048;-68
2023/07/04 04:44:08;;;;;;;23.30;5.95;;;;;;;28.27;32.94;99195.06;5020823;28;20048;-68
2023/07/04 04:46:34;;;;;;;14.43;5.10;;;;;;;28.41;32.45;99203.44;5003154;28;20052;-67
2023/07/04 04:49:04;;;;;;;17.20;4.82;;;;;;;28.55;32.39;99201.72;5000706;28;20427;-67
2023/07/04 04:51:32;;;;;;;17.35;5.07;;;;;;;28.63;32.00;99204.66;5001238;28;20048;-68
2023/07/04 04:53:58;;;;;;;20.00;5.78;;;;;;;28.65;32.25;99209.81;5000174;28;20151;-68
2023/07/04 04:56:24;;;;;;;24.38;5.55;;;;;;;28.67;32.33;99211.19;5000719;28;20488;-67
2023/07/04 04:58:50;;;;;;;18.58;5.43;;;;;;;28.72;32.15;99207.59;4993945;28;20053;-67
2023/07/04 05:01:23;;;;;;;12.50;5.03;;;;;;;28.99;31.67;99205.97;4978066;28;20538;-67
2023/07/04 05:03:53;;;;;;;10.55;4.85;;;;;;;28.84;31.52;99197.94;4962918;28;20069;-68
2023/07/04 05:06:21;;;;;;;16.10;4.45;;;;;;;29.03;30.13;99217.97;5014363;28;20053;-67
2023/07/04 05:08:48;;;;;;;11.00;4.63;;;;;;;29.01;29.10;99211.16;5001104;28;20068;-68
2023/07/04 05:11:14;;;;;;;12.55;3.47;;;;;;;29.02;28.37;99229.19;5000551;28;20056;-67
2023/07/04 05:13:41;;;;;;;13.18;3.88;;;;;;;29.12;27.87;99231.88;5001128;28;20053;-67
2023/07/04 05:16:10;;;;;;;13.23;3.70;;;;;;;29.43;28.40;99236.75;5017409;28;20041;-67
2023/07/04 05:18:37;;;;;;;9.38;3.58;;;;;;;29.25;27.75;99239.41;5000639;28;20056;-67
2023/07/04 05:21:09;;;;;;;15.23;4.30;;;;;;;29.90;27.26;99229.66;5001077;28;20068;-67
2023/07/04 05:23:37;;;;;;;12.90;3.83;;;;;;;29.97;26.61;99224.66;5014957;28;20060;-67
2023/07/04 05:26:14;;;;;;;12.52;4.05;;;;;;;30.15;26.79;99226.59;5000824;28;20048;-67
2023/07/04 05:28:41;;;;;;;9.07;3.30;;;;;;;30.20;26.17;99232.03;5019254;28;20037;-67
2023/07/04 05:31:12;;;;;;;16.02;3.97;;;;;;;30.30;26.54;99240.94;5042856;28;20089;-68
2023/07/04 05:33:39;;;;;;;9.23;3.47;;;;;;;30.07;26.35;99230.81;5057626;28;20048;-68
2023/07/04 05:36:13;;;;;;;11.07;3.28;;;;;;;30.36;25.75;99237.00;5039953;28;20052;-67
2023/07/04 05:38:39;;;;;;;11.27;3.30;;;;;;;30.14;25.28;99236.72;5040233;28;20048;-68
2023/07/04 05:41:10;;;;;;;14.02;3.40;;;;;;;30.67;24.59;99251.88;5023573;28;20104;-68
2023/07/04 05:43:36;;;;;;;7.97;3.35;;;;;;;30.53;24.46;99239.22;5040109;28;20067;-67
2023/07/04 05:46:03;;;;;;;11.50;3.28;;;;;;;30.74;24.70;99254.22;5023198;28;20548;-67
2023/07/04 05:48:31;;;;;;;13.38;3.30;;;;;;;30.85;24.66;99244.75;5039776;28;20080;-67
2023/07/04 05:50:59;;;;;;;7.93;3.25;;;;;;;31.06;24.33;99255.09;5023734;28;20511;-67
2023/07/04 05:53:27;;;;;;;6.85;2.70;;;;;;;31.04;24.59;99248.28;5073128;28;20052;-67
2023/07/04 05:56:11;;;;;;;12.77;3.40;;;;;;;31.31;24.18;99264.03;5056224;28;20040;-67
2023/07/04 05:58:44;;;;;;;8.35;3.28;;;;;;;31.23;24.08;99254.50;5039869;28;20527;-68
2023/07/04 06:01:17;;;;;;;14.88;3.75;;;;;;;31.61;23.97;99261.53;5023451;28;20040;-68
2023/07/04 06:03:45;;;;;;;9.88;3.53;;;;;;;31.49;23.54;99255.72;5040219;28;20101;-68
2023/07/04 06:06:32;;;;;;;8.40;3.55;;;;;;;31.84;23.05;99260.56;5059092;28;20036;-67
2023/07/04 06:09:05;;;;;;;10.52;3.95;;;;;;;31.57;23.70;99266.00;5043549;28;20122;-68
2023/07/04 06:11:34;;;;;;;7.03;3.42;;;;;;;32.07;23.19;99267.78;5076876;28;20048;-67
2023/07/04 06:14:05;;;;;;;12.18;3.88;;;;;;;32.25;23.42;99266.00;5043595;28;20056;-67
2023/07/04 06:16:34;;;;;;;11.82;3.70;;;;;;;32.28;23.56;99271.69;5059876;28;20047;-68
2023/07/04 06:19:00;;;;;;;17.20;4.20;;;;;;;32.27;22.41;99269.25;5059643;28;20116;-68
2023/07/04 06:21:27;;;;;;;9.38;3.45;;;;;;;32.24;22.08;99278.94;5042499;28;20044;-68
2023/07/04 06:23:57;;;;;;;11.77;4.30;;;;;;;32.55;22.82;99274.41;5026142;28;20059;-69
2023/07/04 06:26:27;;;;;;;9.00;3.78;;;;;;;32.23;22.53;99273.75;5061377;28;20143;-69
2023/07/04 06:28:54;;;;;;;9.88;3.38;;;;;;;32.53;22.54;99271.16;5045393;28;20559;-69
2023/07/04 06:31:21;;;;;;;12.45;3.25;;;;;;;32.52;23.26;99266.78;5041964;28;20072;-69
2023/07/04 06:33:47;;;;;;;7.38;3.58;;;;;;;32.73;22.86;99269.88;5026179;28;20146;-70
2023/07/04 06:36:14;;;;;;;6.32;3.35;;;;;;;32.99;22.39;99281.91;5042841;28;20551;-69
2023/07/04 06:38:43;;;;;;;9.02;3.50;;;;;;;33.13;22.50;99277.16;5042907;28;20072;-69
2023/07/04 06:41:11;;;;;;;10.43;4.03;;;;;;;32.91;22.10;99276.34;5043724;28;20040;-69
2023/07/04 06:43:40;;;;;;;7.40;3.35;;;;;;;33.26;21.17;99283.72;5060854;28;20040;-69
2023/07/04 06:46:06;;;;;;;9.88;3.42;;;;;;;33.37;21.72;99282.31;5075886;28;20103;-69
2023/07/04 06:48:32;;;;;;;7.70;3.10;;;;;;;32.92;21.14;99277.97;5042992;28;20075;-69
2023/07/04 06:51:03;;;;;;;8.07;3.45;;;;;;;33.53;20.74;99280.81;5043268;28;20082;-69
2023/07/04 06:53:30;;;;;;;8.85;3.17;;;;;;;33.45;20.76;99270.56;5076566;28;20078;-70
2023/07/04 06:56:22;;;;;;;12.48;3.20;;;;;;;33.75;20.90;99278.81;5092977;28;20281;-69
2023/07/04 06:58:50;;;;;;;8.65;3.28;;;;;;;33.82;21.11;99286.63;5040069;28;20040;-70
2023/07/04 07:01:16;;;;;;;7.65;3.50;;;;;;;34.00;19.96;99296.59;5042570;28;20054;-69
2023/07/04 07:03:43;;;;;;;10.77;3.70;;;;;;;33.83;20.16;99291.00;5025906;28;20070;-69
2023/07/04 07:06:11;;;;;;;8.75;3.47;;;;;;;34.14;19.89;99289.03;5042665;28;20109;-70
2023/07/04 07:08:37;;;;;;;9.50;3.22;;;;;;;33.96;20.06;99287.34;5042241;28;20036;-69
2023/07/04 07:11:06;;;;;;;8.27;3.63;;;;;;;34.49;19.76;99282.47;5042752;28;20090;-69
2023/07/04 07:13:32;;;;;;;9.43;2.85;;;;;;;34.96;19.53;99297.28;5042855;28;20146;-69
2023/07/04 07:16:21;;;;;;;9.15;3.30;;;;;;;35.39;19.18;99296.13;5025900;28;20455;-69
2023/07/04 07:18:48;;;;;;;6.53;2.80;;;;;;;35.21;18.85;99280.69;5043161;28;20109;-69
2023/07/04 07:21:19;;;;;;;11.90;3.47;;;;;;;35.25;18.55;99297.41;5043501;28;20044;-71
2023/07/04 07:23:46;;;;;;;6.60;2.70;;;;;;;35.67;18.82;99291.00;5059767;28;20145;-69
2023/07/04 07:26:15;;;;;;;9.07;3.90;;;;;;;35.95;18.39;99296.94;5076342;28;20067;-69
2023/07/04 07:28:42;;;;;;;7.28;3.50;;;;;;;36.48;17.15;99295.16;5042966;28;20070;-69
2023/07/04 07:31:15;;;;;;;18.02;3.95;;;;;;;37.62;16.20;99298.22;5060138;28;20428;-69
2023/07/04 07:33:48;;;;;;;17.33;3.22;;;;;;;37.90;16.02;99296.44;5060584;28;20040;-69
2023/07/04 07:36:19;;;;;;;8.07;3.08;;;;;;;37.97;14.80;99297.50;5060487;28;20036;-69
2023/07/04 07:38:45;;;;;;;;;;;;;;;39.24;14.68;99307.00;5043431;28;20105;-70
2023/07/04 07:41:11;;;;;;;8.20;3.22;;;;;;;39.66;13.81;99302.59;5042579;28;19920;-69
2023/07/04 07:43:39;;;;;;;10.52;3.50;;;;;;;40.94;13.21;99310.91;5058040;28;20048;-69
2023/07/04 07:46:16;;;;;;;7.47;2.97;;;;;;;42.90;11.92;99314.38;5058706;28;20060;-70
2023/07/04 07:48:43;;;;;;;10.25;3.00;;;;;;;43.83;11.26;99311.47;5041136;28;20510;-70
2023/07/04 07:51:11;;;;;;;7.25;3.25;;;;;;;44.25;10.45;99314.66;5041759;28;20067;-70
2023/07/04 07:53:39;;;;;;;7.00;2.83;;;;;;;46.25;9.38;99309.00;5058604;28;20059;-70
2023/07/04 07:56:06;;;;;;;8.68;3.10;;;;;;;48.02;8.17;99314.28;5024732;28;20043;-70
2023/07/04 07:58:32;;;;;;;10.73;3.78;;;;;;;49.03;7.58;99325.75;5057902;28;20079;-70
2023/07/04 08:00:59;;;;;;;13.57;3.58;;;;;;;49.14;6.53;99309.50;5057483;28;20135;-70
2023/07/04 08:03:24;;;;;;;9.68;4.30;;;;;;;48.22;7.03;99323.78;5074334;28;20051;-70
2023/07/04 08:05:52;;;;;;;10.35;3.45;;;;;;;47.55;7.03;99318.59;5024973;28;20384;-70
2023/07/04 08:08:17;;;;;;;6.80;2.92;;;;;;;46.83;7.34;99320.53;5041375;28;20047;-70
2023/07/04 08:10:44;;;;;;;7.13;3.28;;;;;;;46.71;7.26;99299.28;5041137;28;20052;-70
2023/07/04 08:13:10;;;;;;;6.32;2.67;;;;;;;44.51;8.11;99317.25;5057536;28;20067;-70
2023/07/04 08:15:36;;;;;;;7.57;3.20;;;;;;;42.20;9.68;99299.38;5075409;28;20084;-70
2023/07/04 08:18:04;;;;;;;10.10;2.88;;;;;;;41.28;11.01;99299.72;5042230;28;20047;-70
2023/07/04 08:20:32;;;;;;;9.05;4.15;;;;;;;41.22;10.80;99303.97;5041784;28;20378;-70
2023/07/04 08:22:58;;;;;;;7.93;3.65;;;;;;;42.26;9.52;99302.66;5025656;28;20503;-70
2023/07/04 08:25:24;;;;;;;13.77;7.45;;;;;;;44.70;8.49;99308.59;5058394;28;20048;-70
2023/07/04 08:27:50;;;;;;;7.85;3.47;;;;;;;46.18;7.10;99312.59;5041989;28;20059;-70
2023/07/04 08:30:16;;;;;;;10.77;3.33;;;;;;;45.91;7.16;99302.97;5040956;28;20058;-70
2023/07/04 08:32:42;;;;;;;7.80;3.35;;;;;;;45.10;7.52;99305.59;5041730;28;20044;-69
2023/07/04 08:35:09;;;;;;;11.13;3.20;;;;;;;44.70;8.29;99303.78;5058109;28;20036;-70
2023/07/04 08:37:36;;;;;;;11.43;5.07;;;;;;;47.11;7.54;99309.19;5041799;28;20437;-70
2023/07/04 08:40:03;;;;;;;6.50;3.05;;;;;;;49.66;6.29;99309.97;5057872;28;20044;-70
2023/07/04 08:42:32;;;;;;;8.75;3.30;;;;;;;50.18;5.65;99299.84;5074937;28;20477;-70
2023/07/04 08:44:59;;;;;;;5.55;3.08;;;;;;;50.36;5.43;99315.28;5058029;28;20044;-70
2023/07/04 08:47:25;;;;;;;7.32;2.90;;;;;;;50.21;5.25;99311.09;5041554;28;20052;-70
2023/07/04 08:50:01;;;;;;;8.27;4.43;;;;;;;47.33;7.01;99305.09;5075133;28;20048;-70
2023/07/04 08:52:32;;;;;;;6.05;3.08;;;;;;;42.58;8.97;99279.59;5058858;28;20044;-70
2023/07/04 08:54:58;;;;;;;6.32;3.20;;;;;;;40.99;10.41;99293.91;5091685;28;20059;-70
2023/07/04 08:57:30;;;;;;;7.70;3.35;;;;;;;42.60;9.77;99293.19;5041748;28;20112;-70
2023/07/04 09:00:01;;;;;;;13.82;4.85;;;;;;;45.51;8.74;99292.91;5074736;28;20130;-70
2023/07/04 09:02:39;;;;;;;6.30;3.03;;;;;;;49.13;6.31;99302.25;5042816;28;20140;-70
2023/07/04 09:05:29;;;;;;;9.63;2.92;;;;;;;52.13;5.28;99310.22;5074503;28;20443;-70
2023/07/04 09:08:07;;;;;;;10.18;3.15;;;;;;;52.79;4.50;99313.31;5020290;28;20098;-71
2023/07/04 09:10:40;;;;;;;17.52;2.95;;;;;;;54.53;3.78;99310.94;5090118;28;20079;-70
2023/07/04 09:13:10;;;;;;;10.30;3.13;;;;;;;52.55;4.25;99297.75;5057782;28;20085;-70
2023/07/04 09:15:44;;;;;;;4.68;3.00;;;;;;;48.84;5.82;99304.59;5057605;28;20062;-70
2023/07/04 09:18:31;;;;;;;6.55;3.05;;;;;;;48.55;6.53;99292.03;5056379;28;20052;-70
2023/07/04 09:21:15;;;;;;;6.88;3.17;;;;;;;50.46;5.65;99299.34;5039968;28;20119;-70
2023/07/04 09:23:42;;;;;;;5.70;3.00;;;;;;;48.97;6.27;99304.88;5040043;28;20220;-70
2023/07/04 09:26:11;;;;;;;8.57;3.25;;;;;;;50.16;5.44;99285.34;5073388;28;20044;-70
2023/07/04 09:28:39;;;;;;;5.03;2.80;;;;;;;49.05;5.77;99301.56;5023428;28;20048;-70
2023/07/04 09:31:13;;;;;;;8.50;3.10;;;;;;;45.78;7.49;99288.53;5040031;28;20047;-69
2023/07/04 09:33:39;;;;;;;7.13;3.40;;;;;;;47.31;7.08;99287.81;5056791;28;20055;-69
2023/07/04 09:36:08;;;;;;;7.63;3.50;;;;;;;47.72;6.97;99299.22;5039684;28;20420;-70
2023/07/04 09:38:56;;;;;;;7.88;3.08;;;;;;;47.76;6.35;99302.81;5056171;28;20064;-70
2023/07/04 09:41:28;;;;;;;10.90;3.45;;;;;;;46.97;7.11;99284.75;5042944;28;20101;-70
2023/07/04 09:44:20;;;;;;;5.78;3.03;;;;;;;47.84;6.77;99322.03;5077270;28;20535;-70
2023/07/04 09:46:52;;;;;;;6.63;3.30;;;;;;;47.50;6.17;99307.78;5027249;28;20139;-71
2023/07/04 09:49:21;;;;;;;6.20;3.20;;;;;;;47.96;6.16;99304.69;5032523;28;20462;-70
2023/07/04 09:52:01;;;;;;;6.38;3.13;;;;;;;48.22;6.25;99306.06;5024047;28;20508;-70
2023/07/04 09:54:28;;;;;;;12.88;4.53;;;;;;;49.33;5.89;99302.41;5024583;28;20480;-71
2023/07/04 09:56:54;;;;;;;5.30;2.80;;;;;;;50.76;4.70;99306.88;5061607;28;20044;-70
2023/07/04 09:59:28;;;;;;;6.18;3.20;;;;;;;52.26;4.41;99304.59;5044508;28;20100;-70
2023/07/04 10:01:59;;;;;;;7.07;3.00;;;;;;;52.05;4.46;99300.31;5078418;28;20047;-70
2023/07/04 10:04:33;;;;;;;7.03;3.13;;;;;;;51.68;4.94;99293.13;5044937;28;20040;-70
2023/07/04 10:06:59;;;;;;;17.27;4.00;;;;;;;52.01;4.32;99291.09;5094674;28;20059;-71
2023/07/04 10:09:27;;;;;;;6.72;3.67;;;;;;;53.78;4.01;99293.25;5044609;28;20142;-71
2023/07/04 10:12:09;;;;;;;7.05;3.10;;;;;;;53.89;3.61;99302.19;5077727;28;20134;-70
2023/07/04 10:14:37;;;;;;;4.88;2.85;;;;;;;51.94;4.19;99297.72;5060770;28;20043;-71
2023/07/04 10:17:09;;;;;;;9.25;3.03;;;;;;;54.06;3.83;99292.28;5060883;28;20051;-72
2023/07/04 10:19:44;;;;;;;9.27;3.00;;;;;;;53.93;3.43;99295.19;5077622;28;20075;-71
2023/07/04 10:22:10;;;;;;;6.68;3.78;;;;;;;53.80;3.63;99283.00;5094269;28;20078;-72
2023/07/04 10:24:36;;;;;;;6.47;2.88;;;;;;;53.95;3.55;99286.19;5044017;28;20044;-71
2023/07/04 10:27:10;;;;;;;6.85;2.80;;;;;;;53.27;3.96;99281.09;5059691;28;20048;-71
2023/07/04 10:29:54;;;;;;;5.28;3.13;;;;;;;51.39;4.99;99291.38;5076292;28;20059;-71
2023/07/04 10:32:22;;;;;;;7.60;3.40;;;;;;;50.75;5.34;99288.31;5092965;28;20475;-71
2023/07/04 10:34:49;;;;;;;8.63;3.28;;;;;;;50.22;5.65;99278.78;5093902;28;20048;-71
2023/07/04 10:37:36;;;;;;;4.57;2.90;;;;;;;48.42;6.47;99299.44;5060290;28;20048;-71
2023/07/04 10:40:07;;;;;;;6.95;3.30;;;;;;;46.43;7.71;99282.47;5060205;28;20047;-70
2023/07/04 10:43:01;;;;;;;8.18;3.38;;;;;;;45.42;7.89;99266.41;5093117;28;20048;-70
2023/07/04 10:45:28;;;;;;;9.60;3.40;;;;;;;46.29;7.59;99276.09;5076647;28;20075;-70
2023/07/04 10:47:59;;;;;;;13.50;3.20;;;;;;;46.48;7.57;99278.44;5075857;28;20453;-71
2023/07/04 10:50:39;;;;;;;8.23;3.20;;;;;;;47.18;7.11;99272.59;5043026;28;20155;-70
2023/07/04 10:53:07;;;;;;;6.97;2.90;;;;;;;48.80;6.40;99289.75;5026688;28;20063;-70
2023/07/04 10:55:37;;;;;;;8.73;3.05;;;;;;;50.43;5.37;99283.25;5060774;28;20043;-71
2023/07/04 10:58:16;;;;;;;6.07;3.03;;;;;;;52.25;4.76;99281.16;5068528;28;20048;-71
2023/07/04 11:01:24;;;;;;;9.27;3.40;;;;;;;53.75;4.50;99279.94;5061583;28;20155;-70
2023/07/04 11:04:07;;;;;;;10.35;2.95;;;;;;;53.13;4.11;99287.94;4997135;28;20064;-70
2023/07/04 11:06:37;;;;;;;5.28;3.17;;;;;;;50.88;5.24;99277.91;4996957;28;20038;-70
2023/07/04 11:09:07;;;;;;;7.65;3.15;;;;;;;49.18;5.68;99278.41;5013031;28;20050;-70
2023/07/04 11:11:33;;;;;;;7.15;3.22;;;;;;;47.69;6.33;99283.16;5013723;28;20115;-69
2023/07/04 11:14:06;;;;;;;7.43;2.85;;;;;;;45.63;7.22;99277.66;5013721;28;20069;-70
2023/07/04 11:16:34;;;;;;;6.35;2.80;;;;;;;44.44;8.15;99261.97;4998230;28;20038;-70
2023/07/04 11:19:27;;;;;;;8.13;3.30;;;;;;;43.12;8.56;99268.78;5015141;28;20072;-69
2023/07/04 11:22:05;;;;;;;5.32;3.03;;;;;;;42.80;9.29;99266.75;4959171;28;20308;-69
2023/07/04 11:24:38;;;;;;;8.93;3.30;;;;;;;42.63;9.32;99264.50;5020481;28;20060;-69
2023/07/04 11:27:13;;;;;;;9.60;3.35;;;;;;;42.07;9.68;99244.97;5020932;28;20140;-70
2023/07/04 11:29:57;;;;;;;10.52;3.45;;;;;;;41.78;10.01;99247.63;5036954;28;20111;-70
2023/07/04 11:32:38;;;;;;;7.95;3.38;;;;;;;41.54;10.41;99251.59;5020126;28;20045;-69
2023/07/04 11:35:10;;;;;;;9.40;3.47;;;;;;;40.96;10.58;99236.13;5044931;28;20035;-70
2023/07/04 11:38:01;;;;;;;8.18;3.00;;;;;;;40.80;10.84;99233.41;5061628;28;20056;-69
2023/07/04 11:40:31;;;;;;;9.95;3.58;;;;;;;40.37;10.81;99228.09;5062190;28;20036;-70
2023/07/04 11:43:03;;;;;;;13.00;3.15;;;;;;;40.00;10.77;99237.94;5077980;28;20048;-70
2023/07/04 11:45:30;;;;;;;5.13;3.03;;;;;;;39.91;11.31;99238.16;5078266;28;20052;-69